»·PEaware :: CAX550 KNYL-KSBP

CAX550 :: KNYL-KSBP

FLIGHT INFORMATION

Flight Status: Arrived
Operator:
California Airlines (website)
More flights by this operator :: More flights under this callsign
Pilot: Rodolfo A. (68)
Aircraft: GATES LEARJET LEARJET 60
(LJ60)
More flights by this aircraft type
Origin: KNYL Yuma MCAS/Yuma Intl
United States
Destination: KSBP San Luis Co Regl
United States
More flights between these airports :: More routes between these airports
Route: ARGUS2 IPL J2 MZB J1 DERBB WYNNR
File this flight plan on PilotEdge
Remarks: CALLSIGN CAL AIR 550 -- RUNNING XPLANE10
Altitude:
(Current/Filed)
34,000ft
Speed:
(Current/Filed)
440kts
Departed: 17-Dec-11 08:10 PM
Arrived: 17-Dec-11 10:00 PM
Distance/Time
Traveled:
338nm/1:50
Distance/Time
To Go:
Arrived

Flight Plot

Page will automatically refresh every two minutes.


Map Options




Map Legend


Flown Route
Filed Route
Departure Airport
Arrival Airport
Navaid (VOR, NDB)
Fix

Horizontal Profiles

Position Reports

Time Latitude Longitude Heading Altitude Ground
Speed
17-Dec-11 20:01 32.667652 -114.599584 180 217ft 0kts
17-Dec-11 20:02 32.667652 -114.599584 180 217ft 0kts
17-Dec-11 20:03 32.667651 -114.599584 180 217ft 0kts
17-Dec-11 20:04 32.667272 -114.598984 87 217ft 6kts
17-Dec-11 20:05 32.667311 -114.596328 89 217ft 2kts
17-Dec-11 20:06 32.667316 -114.594739 90 217ft 4kts
17-Dec-11 20:07 32.667366 -114.592477 88 217ft 0kts
17-Dec-11 20:08 32.667385 -114.591587 90 217ft 7kts
17-Dec-11 20:09 32.656546 -114.603577 223 315ft 170kts
17-Dec-11 20:10 32.623898 -114.661281 282 3286ft 254kts
17-Dec-11 20:11 32.686173 -114.693467 352 6376ft 275kts
17-Dec-11 20:12 32.761984 -114.709250 326 9346ft 286kts
17-Dec-11 20:13 32.770261 -114.806634 259 12511ft 345kts
17-Dec-11 20:14 32.761539 -114.922446 265 15518ft 361kts
17-Dec-11 20:16 32.752626 -115.162746 267 21415ft 388kts
17-Dec-11 20:17 32.751124 -115.271210 267 23877ft 404kts
17-Dec-11 20:18 32.749939 -115.407822 267 26369ft 425kts
17-Dec-11 20:19 32.748367 -115.549939 272 28860ft 437kts
17-Dec-11 20:20 32.753515 -115.719728 271 31186ft 446kts
17-Dec-11 20:21 32.756620 -115.841275 271 32741ft 446kts
17-Dec-11 20:22 32.759973 -115.988054 271 34121ft 445kts
17-Dec-11 20:23 32.763178 -116.131334 272 34180ft 445kts
17-Dec-11 20:24 32.767547 -116.278172 271 34182ft 449kts
17-Dec-11 20:25 32.770915 -116.425825 271 34183ft 452kts
17-Dec-11 20:26 32.773753 -116.574668 271 34183ft 452kts
17-Dec-11 20:27 32.776220 -116.722842 271 34182ft 452kts
17-Dec-11 20:28 32.778427 -116.870748 271 34181ft 452kts
17-Dec-11 20:29 32.780427 -117.019095 271 34186ft 452kts
17-Dec-11 20:30 32.787233 -117.165939 290 34184ft 448kts
17-Dec-11 20:31 32.882497 -117.251347 336 34185ft 447kts
17-Dec-11 20:32 32.996726 -117.307659 338 34179ft 454kts
17-Dec-11 20:33 33.095416 -117.352429 339 34180ft 457kts
17-Dec-11 20:34 33.195283 -117.396164 340 34183ft 453kts
17-Dec-11 20:35 33.289462 -117.488600 309 34191ft 451kts
17-Dec-11 20:36 33.369238 -117.603982 309 34190ft 452kts
17-Dec-11 20:37 33.448922 -117.719935 309 34185ft 453kts
17-Dec-11 20:38 33.528510 -117.836258 309 34180ft 455kts
17-Dec-11 20:39 33.577925 -117.908752 309 34180ft 455kts
17-Dec-11 20:40 33.590954 -117.927896 309 34162ft 455kts
17-Dec-11 20:41 33.612546 -117.959637 309 34018ft 455kts
17-Dec-11 20:42 33.621575 -117.972873 309 34129ft 450kts
17-Dec-11 20:43 33.626339 -117.979857 309 34149ft 450kts
17-Dec-11 20:44 33.632389 -117.988744 309 34159ft 449kts
17-Dec-11 20:52 32.667652 -114.599577 180 217ft 0kts
17-Dec-11 20:53 32.667652 -114.599577 180 217ft 0kts
17-Dec-11 20:54 32.667652 -114.599577 180 217ft 0kts
17-Dec-11 20:55 32.667652 -114.599577 180 217ft 0kts
17-Dec-11 20:56 32.667652 -114.599577 180 217ft 0kts
17-Dec-11 20:57 32.667595 -114.599577 179 217ft 1kts
17-Dec-11 20:58 32.667282 -114.596655 90 217ft 15kts
17-Dec-11 20:59 32.667337 -114.592856 88 217ft 4kts
17-Dec-11 21:00 32.661501 -114.597871 223 217ft 141kts
17-Dec-11 21:01 32.622789 -114.650677 260 2913ft 257kts
17-Dec-11 21:02 32.674561 -114.695175 352 5991ft 274kts
17-Dec-11 21:03 32.746592 -114.720616 302 9005ft 287kts
17-Dec-11 21:04 32.757625 -114.824108 270 12097ft 345kts
17-Dec-11 21:05 32.757176 -114.940390 268 15107ft 361kts
17-Dec-11 21:06 32.755057 -115.062410 267 18126ft 378kts
17-Dec-11 21:07 32.753560 -115.189753 268 21127ft 397kts
17-Dec-11 21:08 32.752033 -115.322050 268 24122ft 406kts
17-Dec-11 21:09 32.751046 -115.458320 271 27130ft 423kts
17-Dec-11 21:10 32.751855 -115.596590 270 30035ft 447kts
17-Dec-11 21:11 32.754990 -115.747553 271 32463ft 463kts
17-Dec-11 21:12 32.758651 -115.899688 271 33952ft 462kts
17-Dec-11 21:13 32.762123 -116.051306 271 34159ft 459kts
17-Dec-11 21:14 32.765404 -116.202537 271 34160ft 459kts
17-Dec-11 21:15 32.768535 -116.355359 271 34190ft 465kts
17-Dec-11 21:16 32.771493 -116.508824 271 34190ft 465kts
17-Dec-11 21:17 32.773864 -116.657845 271 34190ft 465kts
17-Dec-11 21:18 32.776399 -116.811400 271 34190ft 465kts
17-Dec-11 21:19 32.778795 -116.964518 271 34190ft 465kts
17-Dec-11 21:20 32.781012 -117.118172 271 34190ft 465kts
17-Dec-11 21:21 32.849485 -117.238008 326 34195ft 466kts
17-Dec-11 21:22 32.966526 -117.301947 340 34190ft 465kts
17-Dec-11 21:23 33.087872 -117.353005 341 34190ft 465kts
17-Dec-11 21:24 33.209409 -117.404130 341 34190ft 465kts
17-Dec-11 21:25 33.303049 -117.507378 310 34190ft 465kts
17-Dec-11 21:26 33.382869 -117.623520 309 34190ft 465kts
17-Dec-11 21:27 33.464501 -117.742370 309 34190ft 465kts
17-Dec-11 21:28 33.546503 -117.861986 309 34190ft 465kts
17-Dec-11 21:29 33.614782 -117.961885 309 34190ft 465kts
17-Dec-11 21:31 33.773724 -118.195470 309 34189ft 461kts
17-Dec-11 21:32 33.854248 -118.314327 308 34187ft 464kts
17-Dec-11 21:33 33.936388 -118.435341 312 34171ft 473kts
17-Dec-11 21:34 34.036299 -118.540280 317 34185ft 480kts
17-Dec-11 21:35 34.132864 -118.642984 317 32323ft 470kts
17-Dec-11 21:36 34.227252 -118.743187 317 30370ft 458kts
17-Dec-11 21:37 34.320963 -118.842944 317 28379ft 444kts
17-Dec-11 21:38 34.417019 -118.931710 325 26392ft 431kts
17-Dec-11 21:39 34.514068 -119.012569 324 24409ft 419kts
17-Dec-11 21:40 34.608197 -119.091506 324 22431ft 407kts
17-Dec-11 21:41 34.698320 -119.167291 324 20463ft 395kts
17-Dec-11 21:42 34.773383 -119.258891 301 18459ft 379kts
17-Dec-11 21:43 34.819027 -119.371158 292 16458ft 364kts
17-Dec-11 21:44 34.859084 -119.482305 292 14453ft 353kts
17-Dec-11 21:45 34.895874 -119.585642 291 12977ft 341kts
17-Dec-11 21:46 34.933411 -119.691760 291 12955ft 342kts
17-Dec-11 21:47 34.971109 -119.798150 293 13004ft 345kts
17-Dec-11 21:48 35.009046 -119.905319 294 13005ft 343kts
17-Dec-11 21:49 35.044504 -120.005806 294 11942ft 294kts
17-Dec-11 21:50 35.074119 -120.089938 294 10411ft 288kts
17-Dec-11 21:51 35.105281 -120.178689 293 8413ft 281kts
17-Dec-11 21:52 35.118780 -120.269597 269 6428ft 272kts
17-Dec-11 21:53 35.119206 -120.360214 270 4395ft 262kts
17-Dec-11 21:54 35.120055 -120.438268 281 4147ft 214kts
17-Dec-11 21:55 35.154232 -120.497856 307 2898ft 212kts
17-Dec-11 21:56 35.182790 -120.544525 304 2350ft 138kts
17-Dec-11 21:57 35.204285 -120.582354 303 1478ft 136kts
17-Dec-11 21:58 35.225865 -120.620767 303 561ft 134kts
17-Dec-11 21:59 35.240296 -120.646297 303 216ft 16kts
17-Dec-11 22:01 35.239675 -120.642177 84 216ft 3kts
17-Dec-11 22:02 35.239544 -120.641809 123 216ft 0kts

Navigation Log

Ident Type
Flight plan parsing failed, navigation log unavailable